Time;durP1;ratioP1;P1;durP2;ratioP2;P2;SDS_P1;SDS_P2;PMS_P1;PMS_P2;Temp;Humidity;BMP_temperature;BMP_pressure;BME280_temperature;BME280_humidity;BME280_pressure;Samples;Min_cycle;Max_cycle;Signal;HPM_P1;HPM_P2
2023/02/12 00:01:33;;;;;;;32.90;17.67;;;;;;;6.25;100.00;102384.03;5003279;28;20041;-77
2023/02/12 00:03:59;;;;;;;40.17;19.27;;;;;;;6.22;100.00;102387.44;5000175;28;20096;-77
2023/02/12 00:06:25;;;;;;;35.95;19.02;;;;;;;6.24;100.00;102390.13;5001980;28;20042;-77
2023/02/12 00:08:52;;;;;;;40.92;19.05;;;;;;;6.24;100.00;102396.25;4999817;28;20041;-77
2023/02/12 00:11:21;;;;;;;39.10;19.67;;;;;;;6.19;100.00;102392.56;5002951;28;20045;-77
2023/02/12 00:13:46;;;;;;;32.85;17.38;;;;;;;6.21;100.00;102398.75;4999784;28;20420;-77
2023/02/12 00:16:14;;;;;;;32.88;19.27;;;;;;;6.26;100.00;102393.69;5002436;28;20105;-77
2023/02/12 00:18:40;;;;;;;34.40;17.33;;;;;;;6.22;100.00;102392.69;5000190;28;20224;-77
2023/02/12 00:21:07;;;;;;;34.78;19.70;;;;;;;6.26;100.00;102391.06;5003404;28;20117;-77
2023/02/12 00:23:33;;;;;;;33.75;17.50;;;;;;;6.18;100.00;102387.25;5007054;28;20038;-77
2023/02/12 00:25:59;;;;;;;32.17;17.00;;;;;;;6.18;100.00;102387.25;5004803;28;20038;-77
2023/02/12 00:28:24;;;;;;;38.90;18.67;;;;;;;6.19;100.00;102391.66;5006895;28;20046;-77
2023/02/12 00:30:50;;;;;;;35.50;18.45;;;;;;;6.16;100.00;102387.19;5009121;28;20116;-77
2023/02/12 00:33:16;;;;;;;38.03;20.10;;;;;;;6.14;100.00;102400.22;5004826;28;20162;-77
2023/02/12 00:35:41;;;;;;;33.92;19.05;;;;;;;6.13;100.00;102408.94;5003033;28;20115;-77
2023/02/12 00:38:06;;;;;;;35.30;18.77;;;;;;;6.11;100.00;102409.69;5003461;28;20519;-77
2023/02/12 00:40:31;;;;;;;37.90;19.63;;;;;;;6.05;100.00;102404.16;5006466;28;20671;-77
2023/02/12 00:42:57;;;;;;;32.67;18.17;;;;;;;6.04;100.00;102408.53;5006627;28;20481;-77
2023/02/12 00:45:22;;;;;;;33.75;19.25;;;;;;;6.01;100.00;102418.88;5002764;28;20050;-77
2023/02/12 00:47:47;;;;;;;33.10;19.45;;;;;;;5.99;100.00;102422.28;5004692;28;20078;-77
2023/02/12 00:50:14;;;;;;;37.08;18.00;;;;;;;6.01;100.00;102424.13;5002835;28;20064;-77
2023/02/12 00:52:39;;;;;;;34.95;19.25;;;;;;;6.03;100.00;102419.84;5003859;28;20050;-77
2023/02/12 00:55:05;;;;;;;35.72;19.30;;;;;;;6.00;100.00;102416.19;5003855;28;20045;-77
2023/02/12 00:57:32;;;;;;;36.08;19.52;;;;;;;6.05;100.00;102415.59;5004469;28;20037;-77
2023/02/12 00:59:57;;;;;;;35.83;20.45;;;;;;;6.04;100.00;102411.16;5008952;28;20386;-77
2023/02/12 01:02:23;;;;;;;37.15;18.55;;;;;;;6.02;100.00;102420.66;5006219;28;20033;-77
2023/02/12 01:04:48;;;;;;;36.88;21.00;;;;;;;5.96;100.00;102415.19;5003259;28;20042;-77
2023/02/12 01:07:13;;;;;;;38.78;20.98;;;;;;;5.96;100.00;102414.28;5003405;28;20092;-77
2023/02/12 01:09:39;;;;;;;37.65;19.98;;;;;;;5.93;100.00;102422.88;5002809;28;20426;-77
2023/02/12 01:12:05;;;;;;;38.35;21.10;;;;;;;5.91;100.00;102421.91;5006308;28;20436;-77
2023/02/12 01:14:30;;;;;;;37.22;20.67;;;;;;;5.95;100.00;102417.72;5005594;28;20038;-77
2023/02/12 01:16:55;;;;;;;39.47;21.05;;;;;;;5.91;100.00;102416.66;5000556;28;20030;-77
2023/02/12 01:19:21;;;;;;;41.28;19.73;;;;;;;5.92;100.00;102426.31;5005565;28;20113;-77
2023/02/12 01:21:46;;;;;;;36.85;18.70;;;;;;;5.90;100.00;102420.13;5008559;28;20116;-77
2023/02/12 01:24:11;;;;;;;39.67;18.55;;;;;;;5.95;100.00;102426.50;5002223;28;20121;-77
2023/02/12 01:26:37;;;;;;;34.92;20.05;;;;;;;5.93;100.00;102425.50;5003732;28;20252;-77
2023/02/12 01:29:05;;;;;;;37.30;18.98;;;;;;;5.96;100.00;102422.16;5004022;28;20442;-77
2023/02/12 01:31:37;;;;;;;32.78;18.40;;;;;;;5.99;100.00;102423.16;5014008;28;20042;-77
2023/02/12 01:34:03;;;;;;;36.30;19.23;;;;;;;5.93;100.00;102425.50;5003341;28;20034;-77
2023/02/12 01:36:32;;;;;;;35.10;19.30;;;;;;;5.91;100.00;102424.53;5003131;28;20026;-77
2023/02/12 01:38:58;;;;;;;45.53;20.83;;;;;;;5.93;100.00;102433.34;5003623;28;20088;-77
2023/02/12 01:41:29;;;;;;;34.05;18.70;;;;;;;5.95;100.00;102434.38;5004594;28;20042;-77
2023/02/12 01:44:31;;;;;;;40.85;21.55;;;;;;;5.95;100.00;102433.44;5002658;28;20378;-77
2023/02/12 01:46:59;;;;;;;42.00;21.08;;;;;;;5.96;100.00;102430.91;4917097;29;20522;-77
2023/02/12 01:49:35;;;;;;;43.72;21.17;;;;;;;5.94;100.00;102435.16;4999641;28;20074;-77
2023/02/12 01:52:19;;;;;;;41.25;20.60;;;;;;;5.94;100.00;102427.31;5004084;28;20027;-77
2023/02/12 01:54:46;;;;;;;43.53;21.83;;;;;;;5.92;100.00;102437.72;5005450;28;20416;-77
2023/02/12 01:57:13;;;;;;;44.95;21.70;;;;;;;5.96;100.00;102437.88;5001925;28;20097;-77
2023/02/12 01:59:42;;;;;;;38.33;19.52;;;;;;;5.96;100.00;102432.63;5004033;28;20037;-77
2023/02/12 02:02:07;;;;;;;41.22;21.75;;;;;;;5.96;100.00;102427.38;5005077;28;20088;-77
2023/02/12 02:04:40;;;;;;;41.00;20.50;;;;;;;5.96;100.00;102430.91;5006823;28;20046;-77
2023/02/12 02:07:09;;;;;;;39.78;22.20;;;;;;;5.99;100.00;102438.88;4999966;28;20038;-77
2023/02/12 02:09:36;;;;;;;39.80;22.00;;;;;;;5.98;100.00;102436.22;4987414;28;20034;-77
2023/02/12 02:14:48;;;;;;;43.05;21.08;;;;;;;5.99;100.00;102436.28;5002244;28;20049;-77
2023/02/12 02:17:38;;;;;;;38.15;21.10;;;;;;;6.00;100.00;102435.47;5002135;28;20040;-77
2023/02/12 02:20:28;;;;;;;34.45;19.25;;;;;;;5.96;100.00;102430.00;5003385;28;20149;-77
2023/02/12 02:23:06;;;;;;;34.22;18.65;;;;;;;5.95;100.00;102426.50;5004702;28;20049;-77
2023/02/12 02:26:04;;;;;;;31.77;18.17;;;;;;;5.92;100.00;102428.94;5004004;28;20054;-77
2023/02/12 02:29:02;;;;;;;40.67;20.48;;;;;;;5.82;100.00;102418.91;5004661;28;20044;-77
2023/02/12 02:31:48;;;;;;;36.88;19.90;;;;;;;5.79;100.00;102424.91;5001841;28;20034;-77
2023/02/12 02:34:23;;;;;;;35.97;20.25;;;;;;;5.79;100.00;102426.59;5000777;28;20520;-77
2023/02/12 02:37:00;;;;;;;36.00;20.33;;;;;;;5.80;100.00;102431.03;5004860;28;20092;-77
2023/02/12 02:39:38;;;;;;;44.00;21.55;;;;;;;5.81;100.00;102431.09;5001634;28;20400;-77
2023/02/12 02:42:16;;;;;;;37.35;20.08;;;;;;;5.79;100.00;102437.09;5003813;28;20076;-77
2023/02/12 02:44:53;;;;;;;39.25;20.08;;;;;;;5.75;100.00;102436.06;5001646;28;20042;-77
2023/02/12 02:47:25;;;;;;;33.10;18.65;;;;;;;5.75;100.00;102436.06;5003669;28;20069;-77
2023/02/12 02:49:56;;;;;;;30.80;18.33;;;;;;;5.80;100.00;102431.03;5001725;28;20038;-77
2023/02/12 02:52:30;;;;;;;34.80;19.45;;;;;;;5.83;100.00;102436.41;5002029;28;20038;-77
2023/02/12 02:55:02;;;;;;;33.33;18.73;;;;;;;5.79;100.00;102438.00;5003800;28;20045;-77
2023/02/12 02:57:33;;;;;;;35.37;18.50;;;;;;;5.77;100.00;102447.53;5000258;28;20041;-77
2023/02/12 03:00:12;;;;;;;35.13;18.90;;;;;;;5.75;100.00;102454.41;5011361;28;20295;-77
2023/02/12 03:02:40;;;;;;;29.77;17.73;;;;;;;5.77;100.00;102451.88;4999471;28;20508;-77
2023/02/12 03:05:17;;;;;;;35.30;18.67;;;;;;;5.78;100.00;102457.16;5003878;28;20042;-77
2023/02/12 03:07:51;;;;;;;32.40;17.90;;;;;;;5.75;100.00;102451.78;5002781;28;20038;-77
2023/02/12 03:10:20;;;;;;;31.70;17.73;;;;;;;5.81;100.00;102456.41;5001143;28;20123;-77
2023/02/12 03:12:57;;;;;;;31.45;17.15;;;;;;;5.87;100.00;102460.19;5003343;28;20041;-77
2023/02/12 03:15:36;;;;;;;37.55;19.33;;;;;;;5.89;100.00;102463.78;5000412;28;20449;-77
2023/02/12 03:18:07;;;;;;;33.58;16.75;;;;;;;5.86;100.00;102461.00;5001040;28;20042;-77
2023/02/12 03:20:39;;;;;;;30.92;17.63;;;;;;;5.88;100.00;102469.84;5003471;28;20026;-77
2023/02/12 03:23:10;;;;;;;34.33;18.25;;;;;;;5.92;100.00;102465.63;5000657;28;20507;-77
2023/02/12 03:25:52;;;;;;;32.53;18.00;;;;;;;5.96;100.00;102467.59;5001488;28;20594;-77
2023/02/12 03:28:22;;;;;;;;;;;;;;;5.96;100.00;102472.84;5000344;28;20037;-77
2023/02/12 03:31:16;;;;;;;30.88;16.17;;;;;;;6.00;100.00;102482.63;5009694;28;19919;-77
2023/02/12 03:33:54;;;;;;;32.75;17.85;;;;;;;6.03;100.00;102482.75;5000584;28;20066;-77
2023/02/12 03:36:40;;;;;;;28.88;16.83;;;;;;;6.05;100.00;102483.72;5000573;28;20456;-77
2023/02/12 03:39:15;;;;;;;34.58;18.42;;;;;;;6.07;100.00;102484.66;5001233;28;20627;-77
2023/02/12 03:41:48;;;;;;;32.53;18.23;;;;;;;5.99;100.00;102486.06;5001084;28;20049;-77
2023/02/12 03:44:22;;;;;;;32.50;18.08;;;;;;;5.99;100.00;102487.78;4999658;28;20608;-77
2023/02/12 03:47:15;;;;;;;33.88;18.35;;;;;;;6.01;100.00;102489.66;5001729;28;20121;-77
2023/02/12 03:49:52;;;;;;;32.40;16.65;;;;;;;6.05;100.00;102493.28;5004233;28;20088;-77
2023/02/12 03:52:17;;;;;;;29.17;16.38;;;;;;;6.07;100.00;102491.66;5004723;28;20042;-77
2023/02/12 03:54:42;;;;;;;31.25;17.33;;;;;;;6.07;100.00;102507.38;5000742;28;20041;-77
2023/02/12 03:57:14;;;;;;;30.25;15.38;;;;;;;6.09;100.00;102508.34;5003389;28;20103;-77
2023/02/12 03:59:43;;;;;;;31.15;17.23;;;;;;;6.09;100.00;102511.84;5011893;28;20034;-77
2023/02/12 04:02:09;;;;;;;29.95;15.65;;;;;;;6.10;100.00;102508.44;5003087;28;20034;-77
2023/02/12 04:04:35;;;;;;;27.27;15.20;;;;;;;6.12;100.00;102516.34;5001892;28;20787;-77
2023/02/12 04:07:01;;;;;;;28.10;16.00;;;;;;;6.11;100.00;102525.03;5015507;28;20179;-74
2023/02/12 04:09:27;;;;;;;33.40;18.58;;;;;;;6.06;100.00;102521.31;5009930;28;20667;-74
2023/02/12 04:12:14;;;;;;;32.58;18.17;;;;;;;6.06;100.00;102524.84;5006103;28;20042;-75
2023/02/12 04:15:05;;;;;;;33.08;19.17;;;;;;;6.08;100.00;102522.28;5014832;28;20129;-74
2023/02/12 04:17:54;;;;;;;31.27;16.83;;;;;;;6.10;100.00;102532.03;5002894;28;20064;-75
2023/02/12 04:20:57;;;;;;;31.88;17.90;;;;;;;6.14;100.00;102535.66;5006238;28;20461;-77
2023/02/12 04:23:41;;;;;;;31.10;17.38;;;;;;;6.13;100.00;102532.16;5003480;28;20041;-77
2023/02/12 04:26:33;;;;;;;31.10;17.25;;;;;;;6.19;100.00;102538.50;5003443;28;20062;-77
2023/02/12 04:29:04;;;;;;;34.88;19.92;;;;;;;6.15;100.00;102540.94;5006420;28;20034;-77
2023/02/12 04:31:50;;;;;;;36.70;19.70;;;;;;;6.21;100.00;102552.53;5007190;28;20037;-77
2023/02/12 04:34:31;;;;;;;42.30;20.38;;;;;;;6.24;100.00;102550.97;5005439;28;20034;-77
2023/02/12 04:37:04;;;;;;;36.25;19.45;;;;;;;6.30;100.00;102545.09;5002910;28;20099;-77
2023/02/12 04:39:34;;;;;;;32.10;19.95;;;;;;;6.25;100.00;102550.13;5004855;28;20037;-77
2023/02/12 04:42:00;;;;;;;39.25;19.95;;;;;;;6.25;100.00;102550.13;5006507;28;20116;-77
2023/02/12 04:44:32;;;;;;;35.75;19.50;;;;;;;6.30;100.00;102547.72;5005543;28;20092;-77
2023/02/12 04:46:58;;;;;;;45.20;21.77;;;;;;;6.31;100.00;102544.25;5002111;28;20452;-77
2023/02/12 04:49:23;;;;;;;37.28;20.88;;;;;;;6.32;100.00;102546.94;5006889;28;20038;-77
2023/02/12 04:51:49;;;;;;;38.80;20.45;;;;;;;6.35;100.00;102551.44;5002774;28;20049;-77
2023/02/12 04:54:16;;;;;;;36.08;20.00;;;;;;;6.35;100.00;102546.19;5002672;28;20034;-77
2023/02/12 04:56:42;;;;;;;40.90;21.08;;;;;;;6.36;100.00;102548.84;5005329;28;20049;-76
2023/02/12 04:59:08;;;;;;;35.78;21.17;;;;;;;6.38;100.00;102548.94;5005917;28;20047;-77
2023/02/12 05:01:36;;;;;;;34.67;20.55;;;;;;;6.38;100.00;102548.06;5006139;28;20509;-77
2023/02/12 05:04:02;;;;;;;39.58;20.58;;;;;;;6.38;100.00;102548.94;5005190;28;20030;-77
2023/02/12 05:06:29;;;;;;;39.35;17.05;;;;;;;6.33;100.00;102548.72;5003152;28;20034;-77
2023/02/12 05:08:55;;;;;;;34.60;16.45;;;;;;;6.30;100.00;102547.72;5004480;28;20041;-77
2023/02/12 05:11:20;;;;;;;32.45;16.42;;;;;;;6.28;100.00;102549.38;5005106;28;20497;-77
2023/02/12 05:13:52;;;;;;;27.38;13.45;;;;;;;6.28;100.00;102555.50;5003173;28;20036;-77
2023/02/12 05:16:19;;;;;;;26.48;12.75;;;;;;;6.26;100.00;102564.13;5004289;28;20408;-77
2023/02/12 05:18:45;;;;;;;29.73;14.18;;;;;;;6.20;100.00;102556.00;5003064;28;20628;-77
2023/02/12 05:21:10;;;;;;;34.47;13.88;;;;;;;6.17;100.00;102550.63;5005197;28;20121;-77
2023/02/12 05:23:37;;;;;;;28.50;12.13;;;;;;;6.17;100.00;102559.38;5005998;28;20669;-77
2023/02/12 05:26:06;;;;;;;28.13;12.35;;;;;;;6.14;100.00;102564.50;5001753;28;20524;-77
2023/02/12 05:28:31;;;;;;;43.38;21.52;;;;;;;6.11;100.00;102565.25;5001856;28;20030;-77
2023/02/12 05:31:02;;;;;;;61.60;28.60;;;;;;;6.10;100.00;102554.69;5010279;28;20515;-77
2023/02/12 05:33:27;;;;;;;43.75;19.92;;;;;;;6.09;100.00;102545.03;5002863;28;20061;-77
2023/02/12 05:35:54;;;;;;;32.78;18.02;;;;;;;6.14;100.00;102549.66;5004158;28;20042;-77
2023/02/12 05:38:20;;;;;;;35.38;17.42;;;;;;;6.22;100.00;102557.88;5003002;28;20461;-77
2023/02/12 05:40:45;;;;;;;40.83;17.40;;;;;;;6.24;100.00;102553.59;5004073;28;20033;-77
2023/02/12 05:43:11;;;;;;;40.88;17.45;;;;;;;6.27;100.00;102560.69;5006458;28;20042;-77
2023/02/12 05:45:36;;;;;;;37.28;17.33;;;;;;;6.26;100.00;102558.88;5003423;28;20045;-77
2023/02/12 05:48:02;;;;;;;38.70;18.02;;;;;;;6.27;100.00;102563.31;5003318;28;20026;-77
2023/02/12 05:50:27;;;;;;;44.30;18.33;;;;;;;6.25;100.00;102562.34;5005413;28;20085;-77
2023/02/12 05:52:59;;;;;;;40.90;18.35;;;;;;;6.23;100.00;102577.09;5001620;28;20030;-77
2023/02/12 05:55:25;;;;;;;46.97;19.65;;;;;;;6.17;100.00;102568.97;5003755;28;20038;-77
2023/02/12 05:57:50;;;;;;;35.90;17.10;;;;;;;6.19;100.00;102575.19;5002290;28;20045;-77
2023/02/12 06:00:16;;;;;;;40.10;17.98;;;;;;;6.17;100.00;102571.59;5004865;28;20045;-77
2023/02/12 06:02:41;;;;;;;37.70;18.63;;;;;;;6.13;100.00;102576.72;5002777;28;20030;-77
2023/02/12 06:05:06;;;;;;;38.10;16.70;;;;;;;6.14;100.00;102582.84;5004484;28;20034;-76
2023/02/12 06:07:32;;;;;;;36.38;16.27;;;;;;;6.18;100.00;102578.63;5001063;28;20038;-77
2023/02/12 06:09:58;;;;;;;34.30;15.65;;;;;;;6.24;100.00;102582.44;5008570;28;20033;-77
2023/02/12 06:12:23;;;;;;;35.45;17.35;;;;;;;6.27;100.00;102584.31;5008512;28;20030;-77
2023/02/12 06:14:48;;;;;;;34.50;18.35;;;;;;;6.32;100.00;102585.41;5000329;28;20080;-77
2023/02/12 06:17:14;;;;;;;40.08;19.67;;;;;;;6.32;100.00;102593.28;5003931;28;20033;-77
2023/02/12 06:19:39;;;;;;;29.48;16.33;;;;;;;6.34;100.00;102592.50;5000693;28;20038;-77
2023/02/12 06:22:04;;;;;;;39.88;16.23;;;;;;;6.31;100.00;102584.50;5004819;28;20045;-77
2023/02/12 06:24:30;;;;;;;35.65;15.57;;;;;;;6.28;100.00;102588.69;5004896;28;20045;-77
2023/02/12 06:26:55;;;;;;;28.40;15.23;;;;;;;6.23;100.00;102595.47;5000237;28;20180;-77
2023/02/12 06:29:21;;;;;;;31.52;16.80;;;;;;;6.19;100.00;102606.66;5011207;28;20033;-78
2023/02/12 06:31:47;;;;;;;30.88;16.30;;;;;;;6.17;100.00;102606.59;5001001;28;20061;-77
2023/02/12 06:34:16;;;;;;;38.42;17.25;;;;;;;6.21;100.00;102610.22;5004369;28;20065;-77
2023/02/12 06:36:43;;;;;;;32.22;15.63;;;;;;;6.25;100.00;102615.69;5000967;28;20070;-77
2023/02/12 06:39:10;;;;;;;29.92;15.55;;;;;;;6.26;100.00;102619.19;4985853;28;20037;-77
2023/02/12 06:41:36;;;;;;;29.15;14.63;;;;;;;6.23;100.00;102619.06;5005697;28;20794;-77
2023/02/12 06:44:01;;;;;;;34.40;21.70;;;;;;;6.18;100.00;102628.44;5002320;28;20034;-77
2023/02/12 06:46:27;;;;;;;30.88;22.17;;;;;;;6.18;100.00;102623.19;5005614;28;20435;-77
2023/02/12 06:48:57;;;;;;;30.58;20.92;;;;;;;6.23;100.00;102633.06;5002271;28;20494;-77
2023/02/12 06:51:24;;;;;;;28.27;21.45;;;;;;;6.21;100.00;102631.19;5001863;28;20073;-77
2023/02/12 06:53:51;;;;;;;31.13;21.85;;;;;;;6.20;100.00;102629.41;5003078;28;20083;-77
2023/02/12 06:56:17;;;;;;;31.23;22.83;;;;;;;6.16;100.00;102644.13;5000431;28;20046;-77
2023/02/12 06:58:44;;;;;;;34.55;23.20;;;;;;;6.18;100.00;102644.19;5004832;28;20041;-77
2023/02/12 07:01:16;;;;;;;32.97;21.48;;;;;;;6.23;100.00;102648.81;5008290;28;20038;-76
2023/02/12 07:03:52;;;;;;;32.47;22.00;;;;;;;6.31;100.00;102643.91;5000847;28;20500;-77
2023/02/12 07:06:18;;;;;;;32.75;21.15;;;;;;;6.33;100.00;102658.00;5001448;28;20051;-77
2023/02/12 07:08:43;;;;;;;29.38;20.48;;;;;;;6.32;100.00;102656.22;5000697;28;20117;-77
2023/02/12 07:11:09;;;;;;;31.67;22.02;;;;;;;6.34;100.00;102654.53;5007940;28;20116;-77
2023/02/12 07:13:35;;;;;;;34.80;22.33;;;;;;;6.39;100.00;102658.25;5004011;28;20030;-77
2023/02/12 07:16:05;;;;;;;38.38;22.00;;;;;;;6.47;100.00;102654.28;5001279;28;20556;-77
2023/02/12 07:18:30;;;;;;;29.13;20.73;;;;;;;6.53;100.00;102651.91;5003309;28;20120;-77
2023/02/12 07:20:56;;;;;;;28.75;20.25;;;;;;;6.59;100.00;102660.03;5001871;28;20116;-77
2023/02/12 07:23:21;;;;;;;31.17;20.67;;;;;;;6.65;100.00;102659.41;5006801;28;20038;-77
2023/02/12 07:25:56;;;;;;;33.90;20.75;;;;;;;6.70;100.00;102664.88;5003154;28;20040;-77
2023/02/12 07:28:22;;;;;;;28.63;19.80;;;;;;;6.71;100.00;102662.31;5000750;28;20173;-77
2023/02/12 07:30:47;;;;;;;31.13;18.98;;;;;;;6.73;100.00;102665.00;5007198;28;20496;-78
2023/02/12 07:33:13;;;;;;;29.10;19.50;;;;;;;6.69;100.00;102663.09;5000785;28;20043;-77
2023/02/12 07:35:38;;;;;;;26.48;18.55;;;;;;;6.67;100.00;102668.25;5002987;28;20073;-77
2023/02/12 07:38:03;;;;;;;28.38;21.13;;;;;;;6.63;100.00;102673.28;5002331;28;20034;-77
2023/02/12 07:40:28;;;;;;;42.40;21.55;;;;;;;6.59;100.00;102678.41;5003493;28;20125;-77
2023/02/12 07:42:55;;;;;;;27.35;19.88;;;;;;;6.61;100.00;102683.75;5001605;28;20124;-78
2023/02/12 07:45:20;;;;;;;35.78;20.35;;;;;;;6.66;100.00;102689.19;5000847;28;20038;-77
2023/02/12 07:47:45;;;;;;;26.80;19.38;;;;;;;6.66;100.00;102694.44;5001760;28;20026;-77
2023/02/12 07:50:11;;;;;;;31.63;19.13;;;;;;;6.64;100.00;102698.72;4999885;28;20046;-77
2023/02/12 07:52:36;;;;;;;30.45;20.58;;;;;;;6.65;100.00;102704.03;5001777;28;20045;-78
2023/02/12 07:55:02;;;;;;;26.48;19.27;;;;;;;6.61;100.00;102695.97;5009468;28;20037;-77
2023/02/12 07:57:27;;;;;;;29.02;19.65;;;;;;;6.67;100.00;102706.72;5004624;28;20045;-77
2023/02/12 07:59:53;;;;;;;31.70;19.02;;;;;;;6.70;100.00;102712.09;5005436;28;20037;-77
2023/02/12 08:02:18;;;;;;;28.00;18.60;;;;;;;6.78;100.00;102706.34;5001592;28;20088;-77
2023/02/12 08:04:43;;;;;;;31.38;20.08;;;;;;;6.79;100.00;102705.56;5001111;28;20092;-77
2023/02/12 08:07:09;;;;;;;28.08;18.60;;;;;;;6.81;100.00;102713.47;5002571;28;20492;-77
2023/02/12 08:09:34;;;;;;;32.40;20.25;;;;;;;6.76;100.00;102718.53;5001716;28;20524;-77
2023/02/12 08:11:59;;;;;;;26.10;18.90;;;;;;;6.80;100.00;102719.56;5000827;28;20026;-77
2023/02/12 08:14:25;;;;;;;28.95;18.55;;;;;;;6.87;100.00;102711.13;5004353;28;20072;-77
2023/02/12 08:16:51;;;;;;;26.20;19.17;;;;;;;6.89;100.00;102716.44;5002708;28;20033;-77
2023/02/12 08:19:17;;;;;;;26.25;19.92;;;;;;;6.88;100.00;102720.78;5000436;28;20038;-77
2023/02/12 08:21:42;;;;;;;29.13;19.98;;;;;;;6.92;100.00;102716.59;5002212;28;20400;-77
2023/02/12 08:24:09;;;;;;;23.40;16.85;;;;;;;7.05;100.00;102712.75;5000332;28;20023;-77
2023/02/12 08:26:37;;;;;;;26.83;18.77;;;;;;;6.97;100.00;102723.84;5001690;28;20189;-77
2023/02/12 08:29:06;;;;;;;32.20;20.70;;;;;;;6.95;100.00;102724.59;5004283;28;20034;-77
2023/02/12 08:31:37;;;;;;;31.52;20.77;;;;;;;6.88;100.00;102727.78;5003099;28;20048;-77
2023/02/12 08:34:03;;;;;;;25.10;18.75;;;;;;;6.91;100.00;102733.16;4999055;28;20034;-77
2023/02/12 08:36:39;;;;;;;34.38;19.38;;;;;;;6.91;100.00;102738.41;5001408;28;20049;-77
2023/02/12 08:39:05;;;;;;;25.35;19.65;;;;;;;6.97;100.00;102722.94;5004953;28;20030;-77
2023/02/12 08:41:31;;;;;;;31.48;23.02;;;;;;;6.99;100.00;102731.75;4998627;28;20038;-77
2023/02/12 08:43:58;;;;;;;28.88;19.58;;;;;;;7.06;100.00;102728.59;5005059;28;20037;-77
2023/02/12 08:46:26;;;;;;;38.17;23.05;;;;;;;7.13;100.00;102732.38;5002640;28;20169;-77
2023/02/12 08:48:57;;;;;;;27.98;19.48;;;;;;;7.17;100.00;102737.81;5006463;28;20065;-77
2023/02/12 08:51:25;;;;;;;31.92;21.25;;;;;;;7.22;100.00;102735.38;5006511;28;20049;-77
2023/02/12 08:53:55;;;;;;;31.38;19.58;;;;;;;7.23;100.00;102737.16;5003776;28;20065;-77
2023/02/12 08:56:22;;;;;;;30.15;21.83;;;;;;;7.24;100.00;102736.34;5003880;28;20065;-77
2023/02/12 08:58:48;;;;;;;29.13;19.35;;;;;;;7.27;100.00;102736.47;5004608;28;20041;-77
2023/02/12 09:01:20;;;;;;;27.52;19.90;;;;;;;7.34;100.00;102746.44;5010436;28;20108;-77
2023/02/12 09:03:46;;;;;;;25.73;19.02;;;;;;;7.31;100.00;102743.69;5003144;28;20046;-77
2023/02/12 09:06:13;;;;;;;24.67;17.75;;;;;;;7.33;100.00;102746.34;5005894;28;20069;-77
2023/02/12 09:08:38;;;;;;;27.88;19.75;;;;;;;7.34;100.00;102753.41;5002472;28;20031;-78
2023/02/12 09:11:06;;;;;;;28.80;19.65;;;;;;;7.37;100.00;102756.16;5006199;28;20040;-78
2023/02/12 09:13:31;;;;;;;32.78;20.95;;;;;;;7.43;100.00;102749.44;5008764;28;20117;-77
2023/02/12 09:16:00;;;;;;;27.52;19.58;;;;;;;7.54;100.00;102751.59;5005390;28;20756;-77
2023/02/12 09:18:25;;;;;;;28.55;20.27;;;;;;;7.58;100.00;102751.81;5004002;28;20049;-77
2023/02/12 09:20:51;;;;;;;26.63;18.30;;;;;;;7.67;100.00;102752.16;5002912;28;20046;-77
2023/02/12 09:23:16;;;;;;;28.35;20.15;;;;;;;7.66;100.00;102760.91;5005862;28;20025;-77
2023/02/12 09:25:43;;;;;;;27.83;19.98;;;;;;;7.74;100.00;102766.47;5004370;28;20084;-77
2023/02/12 09:28:10;;;;;;;29.45;19.40;;;;;;;7.77;100.00;102763.97;5006817;28;20049;-77
2023/02/12 09:30:36;;;;;;;28.48;20.30;;;;;;;7.75;100.00;102768.25;5003810;28;20481;-77
2023/02/12 09:33:02;;;;;;;30.50;19.75;;;;;;;7.78;100.00;102776.31;5003789;28;20034;-77
2023/02/12 09:35:27;;;;;;;28.17;21.13;;;;;;;7.80;100.00;102773.72;5005056;28;20034;-77
2023/02/12 09:37:53;;;;;;;32.08;22.83;;;;;;;7.84;100.00;102771.28;5003773;28;20440;-77
2023/02/12 09:40:34;;;;;;;34.15;23.10;;;;;;;7.92;100.00;102781.22;5003728;28;20042;-77
2023/02/12 09:43:19;;;;;;;33.83;23.80;;;;;;;8.03;100.00;102770.28;5000709;28;20045;-77
2023/02/12 09:45:59;;;;;;;36.58;20.95;;;;;;;8.15;100.00;102783.03;5002138;28;20043;-77
2023/02/12 09:48:41;;;;;;;31.17;21.92;;;;;;;8.14;100.00;102786.50;5002864;28;20539;-77
2023/02/12 09:51:08;;;;;;;28.73;19.83;;;;;;;8.17;100.00;102770.81;4984309;28;20471;-77
2023/02/12 09:53:37;;;;;;;32.08;20.38;;;;;;;8.26;100.00;102773.84;5005244;28;20390;-77
2023/02/12 09:56:11;;;;;;;28.10;20.05;;;;;;;8.42;100.00;102787.63;5000779;28;20070;-77
2023/02/12 09:58:49;;;;;;;28.02;19.45;;;;;;;8.46;100.00;102792.16;5003149;28;20042;-77
2023/02/12 10:01:17;;;;;;;27.33;19.45;;;;;;;8.46;100.00;102789.53;5012767;28;20046;-77
2023/02/12 10:03:44;;;;;;;25.52;19.88;;;;;;;8.32;100.00;102787.22;5005098;28;20073;-77
2023/02/12 10:06:16;;;;;;;24.55;18.88;;;;;;;8.40;100.00;102790.19;5000931;28;20080;-77
2023/02/12 10:08:52;;;;;;;34.30;19.85;;;;;;;8.59;100.00;102791.78;5004923;28;20069;-77
2023/02/12 10:13:54;;;;;;;25.98;17.98;;;;;;;8.83;100.00;102796.19;4994913;28;20493;-79
2023/02/12 10:16:28;;;;;;;26.17;18.92;;;;;;;8.89;100.00;102794.69;4989539;28;20035;-78
2023/02/12 10:19:02;;;;;;;27.83;19.40;;;;;;;8.83;100.00;102798.81;4997520;28;20444;-77
2023/02/12 10:21:51;;;;;;;18.77;9.18;;;;;;;8.93;100.00;102787.78;4995550;28;20036;-78
2023/02/12 10:24:33;;;;;;;18.45;8.85;;;;;;;8.92;100.00;102788.63;4995190;28;20042;-77
2023/02/12 10:27:04;;;;;;;17.63;9.00;;;;;;;9.05;100.00;102782.97;4990418;28;20039;-77
2023/02/12 10:29:37;;;;;;;17.13;9.38;;;;;;;9.11;100.00;102790.19;4993651;28;20030;-78
2023/02/12 10:32:16;;;;;;;16.40;7.50;;;;;;;9.27;100.00;102778.44;4993823;28;20047;-78
2023/02/12 10:34:41;;;;;;;17.67;8.07;;;;;;;9.47;100.00;102779.16;4989916;28;20042;-78
2023/02/12 10:37:19;;;;;;;13.88;7.22;;;;;;;9.61;100.00;102780.50;4993677;28;20041;-79
2023/02/12 10:39:53;;;;;;;16.63;7.78;;;;;;;9.76;100.00;102780.13;4993634;28;20093;-78
2023/02/12 10:42:32;;;;;;;16.20;8.07;;;;;;;9.72;100.00;102781.78;4992665;28;20065;-77
2023/02/12 10:44:57;;;;;;;14.18;7.25;;;;;;;9.76;100.00;102774.88;4991097;28;20039;-77
2023/02/12 10:47:25;;;;;;;16.25;8.40;;;;;;;9.78;100.00;102773.19;4993089;28;20038;-77
2023/02/12 10:49:57;;;;;;;16.50;6.78;;;;;;;9.75;100.00;102773.09;4994210;28;20047;-79
2023/02/12 10:52:37;;;;;;;14.90;7.68;;;;;;;9.81;100.00;102768.00;4992796;28;20050;-78
2023/02/12 10:55:22;;;;;;;16.33;7.43;;;;;;;9.83;100.00;102772.47;4989644;28;20035;-78
2023/02/12 10:57:48;;;;;;;18.17;7.93;;;;;;;9.75;100.00;102765.19;4987887;28;20035;-78
2023/02/12 11:00:23;;;;;;;17.98;7.32;;;;;;;9.95;100.00;102774.59;5001508;28;20045;-77
2023/02/12 11:03:05;;;;;;;16.50;7.22;;;;;;;10.09;100.00;102764.50;4995164;28;20030;-77
2023/02/12 11:05:31;;;;;;;;;;;;;;;10.21;100.00;102761.34;4987614;28;20516;-77
2023/02/12 11:07:57;;;;;;;17.92;8.13;;;;;;;10.15;100.00;102761.16;4992155;28;19917;-79
2023/02/12 11:10:38;;;;;;;13.20;6.95;;;;;;;10.22;100.00;102757.88;4995599;28;20556;-78
2023/02/12 11:13:04;;;;;;;11.93;5.82;;;;;;;10.20;100.00;102756.94;4993206;28;20098;-79
2023/02/12 11:15:37;;;;;;;13.38;6.63;;;;;;;10.26;100.00;102757.09;4993503;28;20370;-79
2023/02/12 11:18:06;;;;;;;14.73;6.15;;;;;;;10.18;100.00;102761.25;4991428;28;20042;-78
2023/02/12 11:20:40;;;;;;;14.50;6.40;;;;;;;10.19;100.00;102763.03;5003903;28;20453;-78
2023/02/12 11:23:23;;;;;;;12.98;5.15;;;;;;;10.12;100.00;102759.31;4993687;28;20034;-78
2023/02/12 11:25:57;;;;;;;14.27;6.65;;;;;;;9.90;100.00;102767.38;4988044;28;20414;-78
2023/02/12 11:28:23;;;;;;;13.55;6.15;;;;;;;9.78;100.00;102762.63;4993599;28;20042;-79